sensor_id;sensor_type;location;lat;lon;timestamp;P1;durP1;ratioP1;P2;durP2;ratioP2
1759;SDS011;877;46.266;20.062;2023-02-03T00:05:11;6.45;;;3.53;;
1759;SDS011;877;46.266;20.062;2023-02-03T00:07:39;6.85;;;3.38;;
1759;SDS011;877;46.266;20.062;2023-02-03T00:10:11;7.43;;;3.78;;
1759;SDS011;877;46.266;20.062;2023-02-03T00:12:39;5.97;;;3.17;;
1759;SDS011;877;46.266;20.062;2023-02-03T00:15:05;7.80;;;3.33;;
1759;SDS011;877;46.266;20.062;2023-02-03T00:17:32;8.20;;;3.75;;
1759;SDS011;877;46.266;20.062;2023-02-03T00:22:32;6.70;;;3.72;;
1759;SDS011;877;46.266;20.062;2023-02-03T00:25:13;5.18;;;3.30;;
1759;SDS011;877;46.266;20.062;2023-02-03T00:27:48;6.93;;;4.65;;
1759;SDS011;877;46.266;20.062;2023-02-03T00:30:14;10.68;;;3.47;;
1759;SDS011;877;46.266;20.062;2023-02-03T00:32:42;7.75;;;4.00;;
1759;SDS011;877;46.266;20.062;2023-02-03T00:37:57;7.65;;;3.67;;
1759;SDS011;877;46.266;20.062;2023-02-03T00:43:10;8.95;;;4.47;;
1759;SDS011;877;46.266;20.062;2023-02-03T00:45:38;5.45;;;3.30;;
1759;SDS011;877;46.266;20.062;2023-02-03T00:50:35;5.95;;;3.35;;
1759;SDS011;877;46.266;20.062;2023-02-03T00:53:09;9.05;;;3.70;;
1759;SDS011;877;46.266;20.062;2023-02-03T00:55:37;6.93;;;4.00;;
1759;SDS011;877;46.266;20.062;2023-02-03T00:58:06;4.78;;;3.00;;
1759;SDS011;877;46.266;20.062;2023-02-03T01:00:33;7.22;;;3.70;;
1759;SDS011;877;46.266;20.062;2023-02-03T01:03:02;4.28;;;3.13;;
1759;SDS011;877;46.266;20.062;2023-02-03T01:10:32;6.93;;;3.83;;
1759;SDS011;877;46.266;20.062;2023-02-03T01:13:00;5.75;;;2.65;;
1759;SDS011;877;46.266;20.062;2023-02-03T01:15:43;6.25;;;3.35;;
1759;SDS011;877;46.266;20.062;2023-02-03T01:18:10;7.93;;;4.05;;
1759;SDS011;877;46.266;20.062;2023-02-03T01:20:37;5.00;;;3.53;;
1759;SDS011;877;46.266;20.062;2023-02-03T01:23:11;6.15;;;3.60;;
1759;SDS011;877;46.266;20.062;2023-02-03T01:25:39;6.53;;;2.90;;
1759;SDS011;877;46.266;20.062;2023-02-03T01:28:12;6.05;;;3.33;;
1759;SDS011;877;46.266;20.062;2023-02-03T01:30:48;6.40;;;3.58;;
1759;SDS011;877;46.266;20.062;2023-02-03T01:33:15;9.27;;;3.53;;
1759;SDS011;877;46.266;20.062;2023-02-03T01:35:49;6.53;;;3.10;;
1759;SDS011;877;46.266;20.062;2023-02-03T01:40:53;5.75;;;3.42;;
1759;SDS011;877;46.266;20.062;2023-02-03T01:46:17;7.90;;;2.55;;
1759;SDS011;877;46.266;20.062;2023-02-03T01:48:47;7.90;;;3.60;;
1759;SDS011;877;46.266;20.062;2023-02-03T01:51:20;6.85;;;3.13;;
1759;SDS011;877;46.266;20.062;2023-02-03T01:53:46;6.30;;;2.72;;
1759;SDS011;877;46.266;20.062;2023-02-03T01:56:20;4.45;;;2.80;;
1759;SDS011;877;46.266;20.062;2023-02-03T01:58:57;5.88;;;3.28;;
1759;SDS011;877;46.266;20.062;2023-02-03T02:01:36;7.28;;;3.05;;
1759;SDS011;877;46.266;20.062;2023-02-03T02:04:03;7.70;;;3.13;;
1759;SDS011;877;46.266;20.062;2023-02-03T02:06:31;7.55;;;3.70;;
1759;SDS011;877;46.266;20.062;2023-02-03T02:08:58;5.63;;;3.25;;
1759;SDS011;877;46.266;20.062;2023-02-03T02:11:25;4.85;;;3.00;;
1759;SDS011;877;46.266;20.062;2023-02-03T02:14:08;7.32;;;3.00;;
1759;SDS011;877;46.266;20.062;2023-02-03T02:17:09;6.40;;;3.15;;
1759;SDS011;877;46.266;20.062;2023-02-03T02:30:14;6.07;;;2.88;;
1759;SDS011;877;46.266;20.062;2023-02-03T02:38:34;5.57;;;2.90;;
1759;SDS011;877;46.266;20.062;2023-02-03T02:51:38;7.53;;;3.72;;
1759;SDS011;877;46.266;20.062;2023-02-03T03:02:07;7.47;;;2.85;;
1759;SDS011;877;46.266;20.062;2023-02-03T03:04:36;3.60;;;2.50;;
1759;SDS011;877;46.266;20.062;2023-02-03T03:07:07;4.00;;;2.50;;
1759;SDS011;877;46.266;20.062;2023-02-03T03:09:38;6.55;;;2.83;;
1759;SDS011;877;46.266;20.062;2023-02-03T03:15:19;5.60;;;2.72;;
1759;SDS011;877;46.266;20.062;2023-02-03T03:18:04;5.13;;;3.05;;
1759;SDS011;877;46.266;20.062;2023-02-03T03:34:49;10.13;;;3.60;;
1759;SDS011;877;46.266;20.062;2023-02-03T03:37:19;5.93;;;3.00;;
1759;SDS011;877;46.266;20.062;2023-02-03T03:39:54;6.25;;;4.05;;
1759;SDS011;877;46.266;20.062;2023-02-03T03:44:56;8.77;;;2.95;;
1759;SDS011;877;46.266;20.062;2023-02-03T03:50:28;5.10;;;3.10;;
1759;SDS011;877;46.266;20.062;2023-02-03T03:52:55;6.15;;;3.15;;
1759;SDS011;877;46.266;20.062;2023-02-03T03:55:27;8.07;;;3.42;;
1759;SDS011;877;46.266;20.062;2023-02-03T04:00:54;5.40;;;2.45;;
1759;SDS011;877;46.266;20.062;2023-02-03T04:03:38;6.70;;;4.03;;
1759;SDS011;877;46.266;20.062;2023-02-03T04:09:24;7.80;;;3.53;;
1759;SDS011;877;46.266;20.062;2023-02-03T04:11:50;5.35;;;3.05;;
1759;SDS011;877;46.266;20.062;2023-02-03T04:14:26;6.30;;;3.42;;
1759;SDS011;877;46.266;20.062;2023-02-03T04:17:03;5.68;;;3.45;;
1759;SDS011;877;46.266;20.062;2023-02-03T04:19:39;6.85;;;3.90;;
1759;SDS011;877;46.266;20.062;2023-02-03T04:30:36;7.85;;;4.35;;
1759;SDS011;877;46.266;20.062;2023-02-03T04:33:02;6.57;;;3.47;;
1759;SDS011;877;46.266;20.062;2023-02-03T04:35:28;7.65;;;3.58;;
1759;SDS011;877;46.266;20.062;2023-02-03T04:40:40;12.02;;;4.55;;
1759;SDS011;877;46.266;20.062;2023-02-03T04:43:12;6.47;;;4.03;;
1759;SDS011;877;46.266;20.062;2023-02-03T04:45:40;7.70;;;3.70;;
1759;SDS011;877;46.266;20.062;2023-02-03T04:48:08;7.78;;;3.83;;
1759;SDS011;877;46.266;20.062;2023-02-03T04:50:39;9.35;;;3.97;;
1759;SDS011;877;46.266;20.062;2023-02-03T04:53:05;8.20;;;3.70;;
1759;SDS011;877;46.266;20.062;2023-02-03T04:58:11;10.35;;;5.70;;
1759;SDS011;877;46.266;20.062;2023-02-03T05:03:09;6.95;;;4.68;;
1759;SDS011;877;46.266;20.062;2023-02-03T05:05:37;6.15;;;4.60;;
1759;SDS011;877;46.266;20.062;2023-02-03T05:08:16;7.57;;;5.07;;
1759;SDS011;877;46.266;20.062;2023-02-03T05:10:42;11.30;;;6.07;;
1759;SDS011;877;46.266;20.062;2023-02-03T05:13:08;8.40;;;5.05;;
1759;SDS011;877;46.266;20.062;2023-02-03T05:15:34;10.40;;;6.25;;
1759;SDS011;877;46.266;20.062;2023-02-03T05:18:11;9.77;;;5.80;;
1759;SDS011;877;46.266;20.062;2023-02-03T05:25:45;9.20;;;4.65;;
1759;SDS011;877;46.266;20.062;2023-02-03T05:28:17;12.32;;;5.85;;
1759;SDS011;877;46.266;20.062;2023-02-03T05:33:31;13.45;;;5.30;;
1759;SDS011;877;46.266;20.062;2023-02-03T05:36:03;9.73;;;5.05;;
1759;SDS011;877;46.266;20.062;2023-02-03T05:38:36;9.25;;;6.03;;
1759;SDS011;877;46.266;20.062;2023-02-03T05:41:14;10.23;;;5.25;;
1759;SDS011;877;46.266;20.062;2023-02-03T05:44:20;6.30;;;5.00;;
1759;SDS011;877;46.266;20.062;2023-02-03T05:46:58;9.50;;;5.35;;
1759;SDS011;877;46.266;20.062;2023-02-03T05:49:24;10.25;;;5.97;;
1759;SDS011;877;46.266;20.062;2023-02-03T05:51:52;12.55;;;5.75;;
1759;SDS011;877;46.266;20.062;2023-02-03T05:54:36;8.63;;;5.20;;
1759;SDS011;877;46.266;20.062;2023-02-03T05:57:03;8.13;;;5.97;;
1759;SDS011;877;46.266;20.062;2023-02-03T05:59:31;10.65;;;5.47;;
1759;SDS011;877;46.266;20.062;2023-02-03T06:04:42;10.15;;;5.35;;
1759;SDS011;877;46.266;20.062;2023-02-03T06:07:19;10.90;;;5.15;;
1759;SDS011;877;46.266;20.062;2023-02-03T06:10:01;12.43;;;5.50;;
1759;SDS011;877;46.266;20.062;2023-02-03T06:12:42;10.80;;;5.38;;
1759;SDS011;877;46.266;20.062;2023-02-03T06:18:01;9.93;;;5.88;;
1759;SDS011;877;46.266;20.062;2023-02-03T06:20:42;15.80;;;5.82;;
1759;SDS011;877;46.266;20.062;2023-02-03T06:23:09;10.20;;;5.45;;
1759;SDS011;877;46.266;20.062;2023-02-03T06:25:47;14.77;;;5.30;;
1759;SDS011;877;46.266;20.062;2023-02-03T06:28:22;8.80;;;7.13;;
1759;SDS011;877;46.266;20.062;2023-02-03T06:30:52;11.00;;;6.90;;
1759;SDS011;877;46.266;20.062;2023-02-03T06:33:29;14.80;;;10.20;;
1759;SDS011;877;46.266;20.062;2023-02-03T06:35:57;14.43;;;8.88;;
1759;SDS011;877;46.266;20.062;2023-02-03T06:38:30;12.93;;;8.10;;
1759;SDS011;877;46.266;20.062;2023-02-03T06:43:33;11.73;;;6.60;;
1759;SDS011;877;46.266;20.062;2023-02-03T06:48:35;14.13;;;8.20;;
1759;SDS011;877;46.266;20.062;2023-02-03T06:51:01;13.32;;;5.75;;
1759;SDS011;877;46.266;20.062;2023-02-03T06:53:30;11.68;;;6.53;;
1759;SDS011;877;46.266;20.062;2023-02-03T06:58:33;9.60;;;5.88;;
1759;SDS011;877;46.266;20.062;2023-02-03T07:01:00;10.73;;;7.45;;
1759;SDS011;877;46.266;20.062;2023-02-03T07:03:30;8.20;;;5.38;;
1759;SDS011;877;46.266;20.062;2023-02-03T07:08:39;9.52;;;5.57;;
1759;SDS011;877;46.266;20.062;2023-02-03T07:13:42;12.20;;;5.53;;
1759;SDS011;877;46.266;20.062;2023-02-03T07:16:25;13.75;;;4.97;;
1759;SDS011;877;46.266;20.062;2023-02-03T07:24:17;12.35;;;5.70;;
1759;SDS011;877;46.266;20.062;2023-02-03T07:29:26;11.13;;;7.13;;
1759;SDS011;877;46.266;20.062;2023-02-03T07:31:54;13.05;;;5.22;;
1759;SDS011;877;46.266;20.062;2023-02-03T07:34:27;11.75;;;4.80;;
1759;SDS011;877;46.266;20.062;2023-02-03T07:36:54;9.65;;;5.80;;
1759;SDS011;877;46.266;20.062;2023-02-03T07:39:21;11.77;;;6.03;;
1759;SDS011;877;46.266;20.062;2023-02-03T07:41:48;11.00;;;4.85;;
1759;SDS011;877;46.266;20.062;2023-02-03T07:44:20;12.40;;;5.65;;
1759;SDS011;877;46.266;20.062;2023-02-03T07:47:01;8.98;;;5.05;;
1759;SDS011;877;46.266;20.062;2023-02-03T07:49:34;13.43;;;5.95;;
1759;SDS011;877;46.266;20.062;2023-02-03T07:52:00;9.45;;;5.30;;
1759;SDS011;877;46.266;20.062;2023-02-03T07:54:27;10.88;;;5.88;;
1759;SDS011;877;46.266;20.062;2023-02-03T07:57:08;12.38;;;6.45;;
1759;SDS011;877;46.266;20.062;2023-02-03T08:02:15;9.48;;;6.10;;
1759;SDS011;877;46.266;20.062;2023-02-03T08:04:56;7.90;;;5.32;;
1759;SDS011;877;46.266;20.062;2023-02-03T08:07:34;14.55;;;8.45;;
1759;SDS011;877;46.266;20.062;2023-02-03T08:10:00;10.27;;;5.65;;
1759;SDS011;877;46.266;20.062;2023-02-03T08:12:32;7.82;;;4.30;;
1759;SDS011;877;46.266;20.062;2023-02-03T08:15:00;9.32;;;4.40;;
1759;SDS011;877;46.266;20.062;2023-02-03T08:17:36;9.30;;;5.25;;
1759;SDS011;877;46.266;20.062;2023-02-03T08:22:48;12.93;;;5.78;;
1759;SDS011;877;46.266;20.062;2023-02-03T08:25:18;11.25;;;4.82;;
1759;SDS011;877;46.266;20.062;2023-02-03T08:30:51;8.40;;;4.75;;
1759;SDS011;877;46.266;20.062;2023-02-03T08:33:19;6.85;;;3.03;;
1759;SDS011;877;46.266;20.062;2023-02-03T08:38:30;7.57;;;5.28;;
1759;SDS011;877;46.266;20.062;2023-02-03T08:41:07;10.15;;;5.40;;
1759;SDS011;877;46.266;20.062;2023-02-03T08:43:33;8.15;;;4.70;;
1759;SDS011;877;46.266;20.062;2023-02-03T08:46:07;7.57;;;4.43;;
1759;SDS011;877;46.266;20.062;2023-02-03T08:48:34;9.93;;;4.90;;
1759;SDS011;877;46.266;20.062;2023-02-03T08:51:01;7.35;;;4.22;;
1759;SDS011;877;46.266;20.062;2023-02-03T08:53:29;12.50;;;3.97;;
1759;SDS011;877;46.266;20.062;2023-02-03T08:55:57;7.72;;;4.10;;
1759;SDS011;877;46.266;20.062;2023-02-03T08:58:31;9.70;;;4.25;;
1759;SDS011;877;46.266;20.062;2023-02-03T09:03:27;11.18;;;4.53;;
1759;SDS011;877;46.266;20.062;2023-02-03T09:05:54;8.40;;;5.55;;
1759;SDS011;877;46.266;20.062;2023-02-03T09:08:30;7.55;;;4.05;;
1759;SDS011;877;46.266;20.062;2023-02-03T09:13:39;8.15;;;5.25;;
1759;SDS011;877;46.266;20.062;2023-02-03T09:16:09;7.53;;;4.25;;
1759;SDS011;877;46.266;20.062;2023-02-03T09:18:36;8.60;;;4.38;;
1759;SDS011;877;46.266;20.062;2023-02-03T09:21:10;5.70;;;3.90;;
1759;SDS011;877;46.266;20.062;2023-02-03T09:23:36;11.55;;;5.20;;
1759;SDS011;877;46.266;20.062;2023-02-03T09:26:03;7.43;;;4.45;;
1759;SDS011;877;46.266;20.062;2023-02-03T09:28:29;9.43;;;4.88;;
1759;SDS011;877;46.266;20.062;2023-02-03T09:33:36;6.97;;;4.03;;
1759;SDS011;877;46.266;20.062;2023-02-03T09:36:03;11.50;;;4.03;;
1759;SDS011;877;46.266;20.062;2023-02-03T09:38:39;7.55;;;3.25;;
1759;SDS011;877;46.266;20.062;2023-02-03T09:49:51;10.68;;;5.15;;
1759;SDS011;877;46.266;20.062;2023-02-03T09:52:21;9.48;;;4.95;;
1759;SDS011;877;46.266;20.062;2023-02-03T09:57:27;5.53;;;3.40;;
1759;SDS011;877;46.266;20.062;2023-02-03T10:08:38;7.80;;;4.10;;
1759;SDS011;877;46.266;20.062;2023-02-03T10:14:27;12.98;;;5.88;;
1759;SDS011;877;46.266;20.062;2023-02-03T10:30:53;6.15;;;3.90;;
1759;SDS011;877;46.266;20.062;2023-02-03T10:33:29;6.10;;;3.05;;
1759;SDS011;877;46.266;20.062;2023-02-03T10:36:09;7.10;;;3.38;;
1759;SDS011;877;46.266;20.062;2023-02-03T10:42:00;7.72;;;3.72;;
1759;SDS011;877;46.266;20.062;2023-02-03T10:44:32;5.47;;;2.83;;
1759;SDS011;877;46.266;20.062;2023-02-03T11:04:31;7.82;;;3.40;;
1759;SDS011;877;46.266;20.062;2023-02-03T11:09:54;7.57;;;3.10;;
1759;SDS011;877;46.266;20.062;2023-02-03T11:14:59;6.57;;;2.90;;
1759;SDS011;877;46.266;20.062;2023-02-03T11:17:30;8.45;;;3.75;;
1759;SDS011;877;46.266;20.062;2023-02-03T11:33:32;10.93;;;3.92;;
1759;SDS011;877;46.266;20.062;2023-02-03T11:38:34;5.20;;;2.97;;
1759;SDS011;877;46.266;20.062;2023-02-03T11:41:12;10.00;;;4.03;;
1759;SDS011;877;46.266;20.062;2023-02-03T11:46:35;7.03;;;3.13;;
1759;SDS011;877;46.266;20.062;2023-02-03T12:27:40;5.38;;;3.22;;
1759;SDS011;877;46.266;20.062;2023-02-03T12:33:34;6.80;;;3.22;;
1759;SDS011;877;46.266;20.062;2023-02-03T12:39:10;6.05;;;3.20;;
1759;SDS011;877;46.266;20.062;2023-02-03T12:41:39;4.22;;;2.40;;
1759;SDS011;877;46.266;20.062;2023-02-03T12:44:31;5.50;;;2.72;;
1759;SDS011;877;46.266;20.062;2023-02-03T12:47:05;4.60;;;3.05;;
1759;SDS011;877;46.266;20.062;2023-02-03T12:49:35;6.10;;;2.70;;
1759;SDS011;877;46.266;20.062;2023-02-03T12:57:20;6.68;;;2.97;;
1759;SDS011;877;46.266;20.062;2023-02-03T13:11:21;4.45;;;2.80;;
1759;SDS011;877;46.266;20.062;2023-02-03T13:14:02;4.30;;;2.38;;
1759;SDS011;877;46.266;20.062;2023-02-03T13:16:34;4.60;;;2.75;;
1759;SDS011;877;46.266;20.062;2023-02-03T13:21:52;6.80;;;3.67;;
1759;SDS011;877;46.266;20.062;2023-02-03T13:24:19;7.55;;;3.80;;
1759;SDS011;877;46.266;20.062;2023-02-03T13:27:03;7.18;;;3.50;;
1759;SDS011;877;46.266;20.062;2023-02-03T13:29:40;6.25;;;3.88;;
1759;SDS011;877;46.266;20.062;2023-02-03T13:32:14;7.50;;;4.05;;
1759;SDS011;877;46.266;20.062;2023-02-03T13:37:26;5.15;;;2.63;;
1759;SDS011;877;46.266;20.062;2023-02-03T13:42:35;7.35;;;4.22;;
1759;SDS011;877;46.266;20.062;2023-02-03T13:50:16;6.75;;;4.28;;
1759;SDS011;877;46.266;20.062;2023-02-03T13:55:59;9.80;;;4.15;;
1759;SDS011;877;46.266;20.062;2023-02-03T14:01:29;8.27;;;4.47;;
1759;SDS011;877;46.266;20.062;2023-02-03T14:09:20;7.57;;;4.68;;
1759;SDS011;877;46.266;20.062;2023-02-03T14:11:52;8.80;;;4.78;;
1759;SDS011;877;46.266;20.062;2023-02-03T14:28:02;18.55;;;10.10;;
1759;SDS011;877;46.266;20.062;2023-02-03T14:31:00;15.32;;;7.32;;
1759;SDS011;877;46.266;20.062;2023-02-03T14:50:41;13.85;;;8.52;;
1759;SDS011;877;46.266;20.062;2023-02-03T14:56:26;14.20;;;7.78;;
1759;SDS011;877;46.266;20.062;2023-02-03T14:58:47;9.73;;;6.72;;
1759;SDS011;877;46.266;20.062;2023-02-03T15:04:21;7.15;;;5.03;;
1759;SDS011;877;46.266;20.062;2023-02-03T15:12:33;9.75;;;6.40;;
1759;SDS011;877;46.266;20.062;2023-02-03T15:15:13;11.00;;;6.22;;
1759;SDS011;877;46.266;20.062;2023-02-03T15:17:46;8.95;;;6.93;;
1759;SDS011;877;46.266;20.062;2023-02-03T15:29:03;8.35;;;4.53;;
1759;SDS011;877;46.266;20.062;2023-02-03T15:42:44;12.18;;;8.30;;
1759;SDS011;877;46.266;20.062;2023-02-03T15:45:25;15.32;;;8.80;;
1759;SDS011;877;46.266;20.062;2023-02-03T15:50:39;18.45;;;11.45;;
1759;SDS011;877;46.266;20.062;2023-02-03T15:53:16;12.00;;;9.25;;
1759;SDS011;877;46.266;20.062;2023-02-03T16:01:21;17.65;;;9.27;;
1759;SDS011;877;46.266;20.062;2023-02-03T16:04:08;16.35;;;9.20;;
1759;SDS011;877;46.266;20.062;2023-02-03T16:06:43;25.35;;;18.90;;
1759;SDS011;877;46.266;20.062;2023-02-03T16:14:36;19.60;;;13.40;;
1759;SDS011;877;46.266;20.062;2023-02-03T16:17:03;38.42;;;23.48;;
1759;SDS011;877;46.266;20.062;2023-02-03T16:19:38;22.63;;;15.38;;
1759;SDS011;877;46.266;20.062;2023-02-03T16:28:10;22.00;;;12.57;;
1759;SDS011;877;46.266;20.062;2023-02-03T16:34:01;21.35;;;13.50;;
1759;SDS011;877;46.266;20.062;2023-02-03T16:39:50;21.42;;;13.57;;
1759;SDS011;877;46.266;20.062;2023-02-03T16:45:38;56.20;;;33.47;;
1759;SDS011;877;46.266;20.062;2023-02-03T16:51:15;48.65;;;29.33;;
1759;SDS011;877;46.266;20.062;2023-02-03T16:56:40;34.70;;;23.77;;
1759;SDS011;877;46.266;20.062;2023-02-03T16:59:06;28.05;;;17.00;;
1759;SDS011;877;46.266;20.062;2023-02-03T17:01:49;31.95;;;18.50;;
1759;SDS011;877;46.266;20.062;2023-02-03T17:04:28;42.90;;;26.85;;
1759;SDS011;877;46.266;20.062;2023-02-03T17:06:55;35.22;;;21.42;;
1759;SDS011;877;46.266;20.062;2023-02-03T17:12:11;29.00;;;17.55;;
1759;SDS011;877;46.266;20.062;2023-02-03T17:14:37;27.50;;;17.23;;
1759;SDS011;877;46.266;20.062;2023-02-03T17:17:10;24.80;;;16.98;;
1759;SDS011;877;46.266;20.062;2023-02-03T17:19:37;29.02;;;16.15;;
1759;SDS011;877;46.266;20.062;2023-02-03T17:27:34;22.75;;;13.38;;
1759;SDS011;877;46.266;20.062;2023-02-03T17:32:30;15.90;;;9.95;;
1759;SDS011;877;46.266;20.062;2023-02-03T17:35:14;17.20;;;11.07;;
1759;SDS011;877;46.266;20.062;2023-02-03T17:37:43;15.93;;;8.77;;
1759;SDS011;877;46.266;20.062;2023-02-03T17:40:11;13.45;;;8.88;;
1759;SDS011;877;46.266;20.062;2023-02-03T17:42:42;18.27;;;9.90;;
1759;SDS011;877;46.266;20.062;2023-02-03T17:45:10;16.70;;;8.85;;
1759;SDS011;877;46.266;20.062;2023-02-03T17:47:36;13.20;;;8.40;;
1759;SDS011;877;46.266;20.062;2023-02-03T17:50:03;15.18;;;9.50;;
1759;SDS011;877;46.266;20.062;2023-02-03T17:52:38;15.38;;;9.18;;
1759;SDS011;877;46.266;20.062;2023-02-03T17:55:11;16.33;;;9.75;;
1759;SDS011;877;46.266;20.062;2023-02-03T17:57:38;17.20;;;10.02;;
1759;SDS011;877;46.266;20.062;2023-02-03T18:00:04;21.45;;;12.48;;
1759;SDS011;877;46.266;20.062;2023-02-03T18:02:38;21.10;;;12.07;;
1759;SDS011;877;46.266;20.062;2023-02-03T18:05:20;15.45;;;10.70;;
1759;SDS011;877;46.266;20.062;2023-02-03T18:10:24;19.08;;;10.80;;
1759;SDS011;877;46.266;20.062;2023-02-03T18:12:52;23.10;;;13.43;;
1759;SDS011;877;46.266;20.062;2023-02-03T18:15:18;23.83;;;15.40;;
1759;SDS011;877;46.266;20.062;2023-02-03T18:20:42;18.35;;;12.80;;
1759;SDS011;877;46.266;20.062;2023-02-03T18:23:09;22.80;;;14.60;;
1759;SDS011;877;46.266;20.062;2023-02-03T18:25:41;26.88;;;17.58;;
1759;SDS011;877;46.266;20.062;2023-02-03T18:30:37;18.70;;;11.40;;
1759;SDS011;877;46.266;20.062;2023-02-03T18:33:10;16.77;;;11.35;;
1759;SDS011;877;46.266;20.062;2023-02-03T18:35:36;20.02;;;14.43;;
1759;SDS011;877;46.266;20.062;2023-02-03T18:38:02;38.80;;;24.60;;
1759;SDS011;877;46.266;20.062;2023-02-03T18:40:43;21.35;;;11.88;;
1759;SDS011;877;46.266;20.062;2023-02-03T18:43:10;19.40;;;11.18;;
1759;SDS011;877;46.266;20.062;2023-02-03T18:45:37;20.77;;;10.70;;
1759;SDS011;877;46.266;20.062;2023-02-03T18:48:04;17.45;;;11.55;;
1759;SDS011;877;46.266;20.062;2023-02-03T18:50:40;16.60;;;10.40;;
1759;SDS011;877;46.266;20.062;2023-02-03T18:53:17;16.33;;;7.70;;
1759;SDS011;877;46.266;20.062;2023-02-03T18:55:43;13.95;;;8.38;;
1759;SDS011;877;46.266;20.062;2023-02-03T18:58:20;13.65;;;8.05;;
1759;SDS011;877;46.266;20.062;2023-02-03T19:00:51;9.55;;;6.70;;
1759;SDS011;877;46.266;20.062;2023-02-03T19:06:23;10.60;;;6.68;;
1759;SDS011;877;46.266;20.062;2023-02-03T19:08:57;11.38;;;7.05;;
1759;SDS011;877;46.266;20.062;2023-02-03T19:11:23;11.02;;;6.00;;
1759;SDS011;877;46.266;20.062;2023-02-03T19:13:58;8.90;;;5.88;;
1759;SDS011;877;46.266;20.062;2023-02-03T19:16:27;7.78;;;4.97;;
1759;SDS011;877;46.266;20.062;2023-02-03T19:19:04;8.48;;;5.53;;
1759;SDS011;877;46.266;20.062;2023-02-03T19:24:03;11.60;;;6.38;;
1759;SDS011;877;46.266;20.062;2023-02-03T19:28:58;9.23;;;6.00;;
1759;SDS011;877;46.266;20.062;2023-02-03T19:31:25;9.25;;;5.85;;
1759;SDS011;877;46.266;20.062;2023-02-03T19:33:57;8.30;;;5.43;;
1759;SDS011;877;46.266;20.062;2023-02-03T19:38:55;8.40;;;5.38;;
1759;SDS011;877;46.266;20.062;2023-02-03T19:41:23;8.38;;;5.80;;
1759;SDS011;877;46.266;20.062;2023-02-03T19:44:04;8.60;;;5.72;;
1759;SDS011;877;46.266;20.062;2023-02-03T19:46:34;22.55;;;10.27;;
1759;SDS011;877;46.266;20.062;2023-02-03T19:49:08;17.42;;;8.80;;
1759;SDS011;877;46.266;20.062;2023-02-03T19:51:37;12.77;;;8.48;;
1759;SDS011;877;46.266;20.062;2023-02-03T19:54:04;10.98;;;7.00;;
1759;SDS011;877;46.266;20.062;2023-02-03T19:56:33;12.35;;;7.22;;
1759;SDS011;877;46.266;20.062;2023-02-03T19:59:10;9.05;;;6.22;;
1759;SDS011;877;46.266;20.062;2023-02-03T20:07:00;8.95;;;6.25;;
1759;SDS011;877;46.266;20.062;2023-02-03T20:09:26;9.30;;;6.07;;
1759;SDS011;877;46.266;20.062;2023-02-03T20:12:00;8.68;;;5.57;;
1759;SDS011;877;46.266;20.062;2023-02-03T20:14:32;8.88;;;5.78;;
1759;SDS011;877;46.266;20.062;2023-02-03T20:19:44;9.13;;;6.75;;
1759;SDS011;877;46.266;20.062;2023-02-03T20:22:10;9.10;;;6.47;;
1759;SDS011;877;46.266;20.062;2023-02-03T20:24:41;8.65;;;6.47;;
1759;SDS011;877;46.266;20.062;2023-02-03T20:29:40;8.40;;;6.13;;
1759;SDS011;877;46.266;20.062;2023-02-03T20:32:12;8.13;;;6.25;;
1759;SDS011;877;46.266;20.062;2023-02-03T20:34:40;9.70;;;6.30;;
1759;SDS011;877;46.266;20.062;2023-02-03T20:37:10;12.10;;;6.85;;
1759;SDS011;877;46.266;20.062;2023-02-03T20:39:47;7.57;;;5.55;;
1759;SDS011;877;46.266;20.062;2023-02-03T20:42:15;8.32;;;4.88;;
1759;SDS011;877;46.266;20.062;2023-02-03T20:49:52;9.05;;;6.28;;
1759;SDS011;877;46.266;20.062;2023-02-03T20:52:19;7.40;;;4.63;;
1759;SDS011;877;46.266;20.062;2023-02-03T20:54:53;8.20;;;5.40;;
1759;SDS011;877;46.266;20.062;2023-02-03T20:57:27;9.57;;;6.30;;
1759;SDS011;877;46.266;20.062;2023-02-03T20:59:53;8.35;;;5.80;;
1759;SDS011;877;46.266;20.062;2023-02-03T21:02:25;11.55;;;6.45;;
1759;SDS011;877;46.266;20.062;2023-02-03T21:11:08;8.95;;;5.70;;
1759;SDS011;877;46.266;20.062;2023-02-03T21:13:35;9.75;;;6.90;;
1759;SDS011;877;46.266;20.062;2023-02-03T21:16:05;10.13;;;5.40;;
1759;SDS011;877;46.266;20.062;2023-02-03T21:21:13;11.07;;;6.38;;
1759;SDS011;877;46.266;20.062;2023-02-03T21:23:42;9.00;;;6.63;;
1759;SDS011;877;46.266;20.062;2023-02-03T21:26:19;11.93;;;7.22;;
1759;SDS011;877;46.266;20.062;2023-02-03T21:31:30;12.20;;;6.60;;
1759;SDS011;877;46.266;20.062;2023-02-03T21:36:48;11.48;;;5.65;;
1759;SDS011;877;46.266;20.062;2023-02-03T21:39:28;9.20;;;5.25;;
1759;SDS011;877;46.266;20.062;2023-02-03T21:41:56;8.25;;;5.30;;
1759;SDS011;877;46.266;20.062;2023-02-03T21:44:30;9.30;;;5.97;;
1759;SDS011;877;46.266;20.062;2023-02-03T21:47:01;9.13;;;5.82;;
1759;SDS011;877;46.266;20.062;2023-02-03T21:49:28;9.15;;;5.95;;
1759;SDS011;877;46.266;20.062;2023-02-03T21:51:56;13.30;;;7.68;;
1759;SDS011;877;46.266;20.062;2023-02-03T21:54:26;7.25;;;5.30;;
1759;SDS011;877;46.266;20.062;2023-02-03T21:56:56;6.78;;;4.80;;
1759;SDS011;877;46.266;20.062;2023-02-03T21:59:24;7.32;;;4.65;;
1759;SDS011;877;46.266;20.062;2023-02-03T22:04:33;12.55;;;7.57;;
1759;SDS011;877;46.266;20.062;2023-02-03T22:17:54;3.58;;;2.13;;
1759;SDS011;877;46.266;20.062;2023-02-03T22:22:56;5.10;;;2.08;;
1759;SDS011;877;46.266;20.062;2023-02-03T22:25:28;6.93;;;2.05;;
1759;SDS011;877;46.266;20.062;2023-02-03T22:27:56;3.90;;;1.65;;
1759;SDS011;877;46.266;20.062;2023-02-03T22:30:22;3.85;;;1.30;;
1759;SDS011;877;46.266;20.062;2023-02-03T22:35:28;3.75;;;1.30;;
1759;SDS011;877;46.266;20.062;2023-02-03T22:38:02;4.10;;;1.55;;
1759;SDS011;877;46.266;20.062;2023-02-03T22:43:07;4.70;;;1.65;;
1759;SDS011;877;46.266;20.062;2023-02-03T22:50:46;3.25;;;1.70;;
1759;SDS011;877;46.266;20.062;2023-02-03T22:56:14;4.28;;;1.80;;
1759;SDS011;877;46.266;20.062;2023-02-03T22:58:48;4.32;;;2.00;;
1759;SDS011;877;46.266;20.062;2023-02-03T23:01:16;3.80;;;1.67;;
1759;SDS011;877;46.266;20.062;2023-02-03T23:03:42;4.75;;;1.83;;
1759;SDS011;877;46.266;20.062;2023-02-03T23:06:10;4.95;;;1.80;;
1759;SDS011;877;46.266;20.062;2023-02-03T23:08:43;3.85;;;1.92;;
1759;SDS011;877;46.266;20.062;2023-02-03T23:11:25;8.40;;;1.70;;
1759;SDS011;877;46.266;20.062;2023-02-03T23:13:52;4.70;;;1.85;;
1759;SDS011;877;46.266;20.062;2023-02-03T23:16:18;7.18;;;2.58;;
1759;SDS011;877;46.266;20.062;2023-02-03T23:18:46;3.75;;;1.70;;
1759;SDS011;877;46.266;20.062;2023-02-03T23:21:13;8.15;;;1.83;;
1759;SDS011;877;46.266;20.062;2023-02-03T23:23:48;4.65;;;1.52;;
1759;SDS011;877;46.266;20.062;2023-02-03T23:28:58;5.72;;;2.85;;
1759;SDS011;877;46.266;20.062;2023-02-03T23:31:28;4.35;;;2.03;;
1759;SDS011;877;46.266;20.062;2023-02-03T23:34:03;6.07;;;2.03;;
1759;SDS011;877;46.266;20.062;2023-02-03T23:37:03;4.80;;;2.20;;
1759;SDS011;877;46.266;20.062;2023-02-03T23:39:35;5.25;;;2.03;;
1759;SDS011;877;46.266;20.062;2023-02-03T23:42:10;7.07;;;2.03;;
1759;SDS011;877;46.266;20.062;2023-02-03T23:47:25;3.75;;;1.52;;
1759;SDS011;877;46.266;20.062;2023-02-03T23:49:58;9.60;;;2.80;;
1759;SDS011;877;46.266;20.062;2023-02-03T23:52:25;6.00;;;1.90;;
1759;SDS011;877;46.266;20.062;2023-02-03T23:55:07;6.00;;;1.58;;
1759;SDS011;877;46.266;20.062;2023-02-03T23:57:46;5.15;;;2.88;;
